Terminal Aerodrome Forecast
Issued by NWS

Current Version | Previous Version | Graphics & Text | Print | Product List | Glossary On
Versions: 1 2 3 4 5 6 7 8 9 10 11 12 13 14 15 16 17 18 19 20 21 22 23 24 25
696
FTUS41 KRLX 141129
TAFCKB
TAF
KCKB 141129Z 1412/1512 VRB03KT 5SM -RA OVC025
     FM141400 VRB02KT 2SM -RA OVC014
     FM141500 00000KT 2SM -RA OVC009
     FM142000 VRB03KT 2SM -RA OVC004
     FM150600 VRB03KT 4SM -RA BKN006
     FM150900 VRB03KT 4SM BR BKN016=

USA.gov is the U.S. government's official web portal to all federal, state and local government web resources and services.